createdAt,value
2023-01-08T00:01:40.403Z,99444.66
2023-01-08T00:04:29.031Z,99444.63
2023-01-08T00:07:11.241Z,99447.03
2023-01-08T00:10:00.043Z,99444.56
2023-01-08T00:12:42.211Z,99457.41
2023-01-08T00:15:31.857Z,99453.72
2023-01-08T00:18:20.977Z,99439.00
2023-01-08T00:21:09.929Z,99439.56
2023-01-08T00:23:58.988Z,99445.19
2023-01-08T00:26:47.969Z,99445.00
2023-01-08T00:29:30.289Z,99452.25
2023-01-08T00:32:19.029Z,99456.38
2023-01-08T00:35:02.618Z,99453.91
2023-01-08T00:37:52.923Z,99447.81
2023-01-08T00:40:35.584Z,99454.22
2023-01-08T00:43:29.975Z,99464.31
2023-01-08T00:46:22.015Z,99460.03
2023-01-08T00:49:04.217Z,99466.66
2023-01-08T00:51:52.891Z,99462.28
2023-01-08T00:54:36.327Z,99461.78
2023-01-08T00:57:24.886Z,99461.13
2023-01-08T01:00:07.313Z,99451.69
2023-01-08T01:02:56.029Z,99448.56
2023-01-08T01:05:38.339Z,99443.75
2023-01-08T01:08:26.944Z,99454.97
2023-01-08T01:11:19.913Z,99443.56
2023-01-08T01:14:02.340Z,99454.31
2023-01-08T01:16:51.959Z,99452.81
2023-01-08T01:19:34.249Z,99452.16
2023-01-08T01:22:22.972Z,99467.22
2023-01-08T01:25:05.745Z,99471.38
2023-01-08T01:27:54.966Z,99473.50
2023-01-08T01:30:44.118Z,99477.41
2023-01-08T01:33:26.243Z,99480.03
2023-01-08T01:36:15.932Z,99484.69
2023-01-08T01:39:00.399Z,99487.00
2023-01-08T01:41:53.963Z,99491.28
2023-01-08T01:44:44.465Z,99491.25
2023-01-08T01:47:46.947Z,99503.44
2023-01-08T01:50:46.969Z,99500.88
2023-01-08T01:53:34.098Z,99502.94
2023-01-08T01:56:24.341Z,99511.66
2023-01-08T01:59:07.243Z,99510.22
2023-01-08T02:01:57.071Z,99521.72
2023-01-08T02:04:39.367Z,99522.91
2023-01-08T02:08:05.872Z,99516.69
2023-01-08T02:11:04.968Z,99523.47
2023-01-08T02:13:51.230Z,99520.78
2023-01-08T02:16:53.970Z,99515.28
2023-01-08T02:19:48.248Z,99525.06
2023-01-08T02:22:42.868Z,99514.09
2023-01-08T02:25:31.293Z,99514.22
2023-01-08T02:28:22.861Z,99520.31
2023-01-08T02:31:06.366Z,99516.00
2023-01-08T02:33:54.865Z,99517.63
2023-01-08T02:36:50.863Z,99527.56
2023-01-08T02:40:14.162Z,99534.75
2023-01-08T02:43:26.846Z,99558.19
2023-01-08T02:46:21.294Z,99553.84
2023-01-08T02:49:11.859Z,99575.88
2023-01-08T02:52:05.278Z,99573.53
2023-01-08T02:54:50.013Z,99579.00
2023-01-08T02:57:41.309Z,99589.00
2023-01-08T03:00:23.936Z,99598.16
2023-01-08T03:03:28.318Z,99601.00
2023-01-08T03:06:21.857Z,99605.81
2023-01-08T03:09:11.202Z,99604.00
2023-01-08T03:12:07.880Z,99604.56
2023-01-08T03:14:57.293Z,99605.88
2023-01-08T03:17:50.894Z,99597.22
2023-01-08T03:20:34.651Z,99595.78
2023-01-08T03:23:25.815Z,99599.97
2023-01-08T03:26:15.240Z,99596.84
2023-01-08T03:29:01.898Z,99593.88
2023-01-08T03:31:52.981Z,99610.78
2023-01-08T03:34:38.260Z,99611.50
2023-01-08T03:37:32.846Z,99613.81
2023-01-08T03:40:25.794Z,99619.44
2023-01-08T03:43:14.959Z,99615.63
2023-01-08T03:46:11.207Z,99629.91
2023-01-08T03:48:54.921Z,99640.63
2023-01-08T03:51:54.220Z,99639.75
2023-01-08T03:54:40.929Z,99628.53
2023-01-08T03:57:23.531Z,99626.13
2023-01-08T04:00:12.866Z,99624.97
2023-01-08T04:03:03.227Z,99628.63
2023-01-08T04:05:46.215Z,99627.56
2023-01-08T04:08:34.977Z,99625.41
2023-01-08T04:11:17.186Z,99627.69
2023-01-08T04:14:05.875Z,99623.84
2023-01-08T04:16:48.295Z,99621.25
2023-01-08T04:19:36.929Z,99620.78
2023-01-08T04:22:19.188Z,99621.75
2023-01-08T04:25:07.897Z,99620.56
2023-01-08T04:27:50.200Z,99627.56
2023-01-08T04:30:38.925Z,99637.97
2023-01-08T04:33:21.246Z,99638.44
2023-01-08T04:36:10.981Z,99636.00
2023-01-08T04:38:59.927Z,99643.75
2023-01-08T04:41:48.260Z,99648.13
2023-01-08T04:44:42.876Z,99648.06
2023-01-08T04:47:25.140Z,99640.44
2023-01-08T04:50:13.948Z,99636.22
2023-01-08T04:53:02.207Z,99635.13
2023-01-08T04:55:44.951Z,99636.97
2023-01-08T04:58:33.167Z,99637.09
2023-01-08T05:01:28.080Z,99636.56
2023-01-08T05:04:12.203Z,99636.56
2023-01-08T05:07:01.218Z,99641.03
2023-01-08T05:09:49.273Z,99646.16
2023-01-08T05:12:31.909Z,99655.13
2023-01-08T05:15:20.200Z,99653.09
2023-01-08T05:18:13.955Z,99659.88
2023-01-08T05:20:56.728Z,99659.03
2023-01-08T05:23:46.842Z,99656.72
2023-01-08T05:26:35.869Z,99657.78
2023-01-08T05:29:24.816Z,99655.66
2023-01-08T05:32:22.158Z,99646.84
2023-01-08T05:35:03.993Z,99643.22
2023-01-08T05:37:52.202Z,99643.06
2023-01-08T05:40:34.878Z,99630.47
2023-01-08T05:43:17.207Z,99629.34
2023-01-08T05:46:05.974Z,99624.88
2023-01-08T05:48:54.874Z,99618.03
2023-01-08T05:51:43.832Z,99613.94
2023-01-08T05:54:32.181Z,99610.13
2023-01-08T05:57:13.823Z,99615.22
2023-01-08T06:00:02.135Z,99614.00
2023-01-08T06:02:47.019Z,99611.56
2023-01-08T06:05:36.417Z,99603.09
2023-01-08T06:08:17.828Z,99594.56
2023-01-08T06:11:07.779Z,99601.13
2023-01-08T06:13:58.888Z,99602.03
2023-01-08T06:16:48.233Z,99604.22
2023-01-08T06:19:30.931Z,99610.56
2023-01-08T06:22:19.222Z,99616.78
2023-01-08T06:25:01.852Z,99614.06
2023-01-08T06:27:50.937Z,99611.94
2023-01-08T06:30:39.943Z,99606.81
2023-01-08T06:33:29.182Z,99600.34
2023-01-08T06:36:12.926Z,99600.19
2023-01-08T06:39:01.242Z,99593.00
2023-01-08T06:41:42.905Z,99586.41
2023-01-08T06:44:37.762Z,99592.88
2023-01-08T06:47:26.934Z,99575.84
2023-01-08T06:50:09.290Z,99569.84
2023-01-08T06:53:01.844Z,99565.50
2023-01-08T06:55:45.163Z,99562.41
2023-01-08T06:58:37.941Z,99552.00
2023-01-08T07:01:24.354Z,99544.19
2023-01-08T07:04:12.889Z,99537.44
2023-01-08T07:07:02.871Z,99530.88
2023-01-08T07:09:51.884Z,99533.03
2023-01-08T07:12:34.128Z,99527.69
2023-01-08T07:15:22.917Z,99523.63
2023-01-08T07:18:07.007Z,99523.03
2023-01-08T07:20:57.916Z,99525.91
2023-01-08T07:23:42.949Z,99521.84
2023-01-08T07:26:31.799Z,99500.66
2023-01-08T07:29:20.907Z,99494.69
2023-01-08T07:32:03.841Z,99483.41
2023-01-08T07:34:52.825Z,99478.03
2023-01-08T07:37:42.175Z,99471.88
2023-01-08T07:40:24.825Z,99468.22
2023-01-08T07:43:14.748Z,99466.13
2023-01-08T07:46:09.828Z,99457.28
2023-01-08T07:48:58.534Z,99445.53
2023-01-08T07:51:41.891Z,99443.22
2023-01-08T07:54:30.207Z,99440.53
2023-01-08T07:57:12.889Z,99439.22
2023-01-08T08:00:01.177Z,99450.53
2023-01-08T08:02:43.972Z,99446.41
2023-01-08T08:05:32.096Z,99443.06
2023-01-08T08:08:18.869Z,99446.63
2023-01-08T08:11:08.200Z,99450.13
2023-01-08T08:13:54.186Z,99452.97
2023-01-08T08:16:43.770Z,99454.59
2023-01-08T08:19:32.781Z,99437.28
2023-01-08T08:22:22.191Z,99440.72
2023-01-08T08:25:04.833Z,99445.59
2023-01-08T08:27:53.853Z,99435.59
2023-01-08T08:30:37.173Z,99427.22
2023-01-08T08:33:25.828Z,99412.06
2023-01-08T08:36:08.167Z,99411.03
2023-01-08T08:38:56.831Z,99413.13
2023-01-08T08:41:39.122Z,99410.06
2023-01-08T08:44:27.817Z,99394.13
2023-01-08T08:47:10.403Z,99396.94
2023-01-08T08:49:58.859Z,99390.41
2023-01-08T08:52:48.782Z,99381.94
2023-01-08T08:55:38.163Z,99378.13
2023-01-08T08:58:21.865Z,99374.78
2023-01-08T09:01:05.145Z,99362.63
2023-01-08T09:03:53.876Z,99365.03
2023-01-08T09:06:42.853Z,99355.72
2023-01-08T09:09:25.209Z,99351.38
2023-01-08T09:12:14.880Z,99342.31
2023-01-08T09:14:58.070Z,99336.81
2023-01-08T09:17:47.908Z,99338.91
2023-01-08T09:20:31.191Z,99321.88
2023-01-08T09:23:19.887Z,99332.06
2023-01-08T09:26:11.228Z,99335.91
2023-01-08T09:28:59.862Z,99326.72
2023-01-08T09:31:48.958Z,99318.25
2023-01-08T09:34:38.893Z,99314.78
2023-01-08T09:37:28.221Z,99334.31
2023-01-08T09:40:16.120Z,99356.78
2023-01-08T09:43:10.709Z,99365.75
2023-01-08T09:46:10.791Z,99386.81
2023-01-08T09:48:54.954Z,99406.81
2023-01-08T09:51:49.909Z,99390.44
2023-01-08T09:54:39.114Z,99379.41
2023-01-08T09:57:26.863Z,99390.75
2023-01-08T10:00:29.257Z,99385.22
2023-01-08T10:03:11.855Z,99381.31
2023-01-08T10:06:01.096Z,99381.50
2023-01-08T10:08:42.876Z,99361.19
2023-01-08T10:11:27.987Z,99357.31
2023-01-08T10:14:16.791Z,99354.41
2023-01-08T10:17:22.861Z,99346.63
2023-01-08T10:20:05.360Z,99357.72
2023-01-08T10:22:57.968Z,99349.91
2023-01-08T10:25:40.230Z,99344.13
2023-01-08T10:28:40.102Z,99342.09
2023-01-08T10:31:24.313Z,99328.88
2023-01-08T10:34:18.810Z,99329.50
2023-01-08T10:37:03.194Z,99333.41
2023-01-08T10:40:02.823Z,99327.03
2023-01-08T10:42:45.133Z,99319.19
2023-01-08T10:45:42.866Z,99321.16
2023-01-08T10:48:34.298Z,99313.13
2023-01-08T10:51:23.865Z,99315.19
2023-01-08T10:54:45.183Z,99318.47
2023-01-08T10:57:40.797Z,99319.66
2023-01-08T11:00:41.179Z,99311.59
2023-01-08T11:03:39.856Z,99313.19
2023-01-08T11:06:35.317Z,99324.66
2023-01-08T11:09:35.885Z,99323.13
2023-01-08T11:12:23.888Z,99328.84
2023-01-08T11:15:14.907Z,99323.00
2023-01-08T11:18:12.137Z,99321.41
2023-01-08T11:20:55.817Z,99319.19
2023-01-08T11:23:44.771Z,99312.44
2023-01-08T11:26:36.863Z,99325.75
2023-01-08T11:29:38.391Z,99309.13
2023-01-08T11:32:58.152Z,99322.34
2023-01-08T11:35:46.315Z,99325.28
2023-01-08T11:38:34.817Z,99320.94
2023-01-08T11:41:31.418Z,99334.72
2023-01-08T11:44:53.843Z,99329.56
2023-01-08T11:48:19.135Z,99319.75
2023-01-08T11:51:21.913Z,99317.50
2023-01-08T11:54:19.143Z,99320.16
2023-01-08T11:57:27.889Z,99331.47
2023-01-08T12:00:38.681Z,99333.94
2023-01-08T12:03:45.863Z,99319.75
2023-01-08T12:07:06.178Z,99312.59
2023-01-08T12:09:54.895Z,99328.59
2023-01-08T12:12:47.576Z,99356.88
2023-01-08T12:15:49.837Z,99373.69
2023-01-08T12:18:43.791Z,99366.06
2023-01-08T12:21:42.120Z,99355.34
2023-01-08T12:25:02.862Z,99355.94
2023-01-08T12:28:06.782Z,99358.97
2023-01-08T12:31:21.232Z,99357.50
2023-01-08T12:34:25.165Z,99343.75
2023-01-08T12:37:23.171Z,99329.66
2023-01-08T12:40:29.829Z,99321.06
2023-01-08T12:43:30.884Z,99319.78
2023-01-08T12:46:28.829Z,99312.41
2023-01-08T12:49:27.724Z,99316.41
2023-01-08T12:52:24.888Z,99314.38
2023-01-08T12:55:24.708Z,99320.78
2023-01-08T12:58:23.847Z,99332.00
2023-01-08T13:01:26.002Z,99325.94
2023-01-08T13:04:17.169Z,99322.00
2023-01-08T13:07:06.813Z,99325.78
2023-01-08T13:09:57.477Z,99316.38
2023-01-08T13:12:51.836Z,99327.03
2023-01-08T13:15:42.134Z,99358.72
2023-01-08T13:18:27.846Z,99370.22
2023-01-08T13:21:26.862Z,99356.97
2023-01-08T13:24:40.879Z,99376.59
2023-01-08T13:27:23.220Z,99388.16
2023-01-08T13:30:11.778Z,99401.38
2023-01-08T13:33:02.851Z,99406.97
2023-01-08T13:35:51.089Z,99422.09
2023-01-08T13:38:34.135Z,99440.09
2023-01-08T13:42:12.334Z,99442.22
2023-01-08T13:45:10.011Z,99441.00
2023-01-08T13:47:59.832Z,99447.41
2023-01-08T13:50:44.225Z,99452.91
2023-01-08T13:53:32.868Z,99451.72
2023-01-08T13:56:17.170Z,99448.91
2023-01-08T13:59:16.917Z,99463.03
2023-01-08T14:02:04.274Z,99464.94
2023-01-08T14:08:31.180Z,99457.84
2023-01-08T14:11:12.805Z,99454.53
2023-01-08T14:13:55.540Z,99453.31
2023-01-08T14:16:44.951Z,99453.06
2023-01-08T14:22:37.877Z,99461.78
2023-01-08T14:25:27.895Z,99464.53
2023-01-08T14:28:15.119Z,99458.97
2023-01-08T14:31:05.867Z,99461.94
2023-01-08T14:33:57.117Z,99458.59
2023-01-08T14:39:45.097Z,99463.63
2023-01-08T14:42:54.765Z,99460.63
2023-01-08T14:45:40.373Z,99459.44
2023-01-08T14:48:34.036Z,99467.56
2023-01-08T14:51:21.497Z,99471.06
2023-01-08T14:54:13.852Z,99465.88
2023-01-08T14:57:07.706Z,99456.03
2023-01-08T15:00:05.837Z,99450.78
2023-01-08T15:02:48.157Z,99457.72
2023-01-08T15:05:41.846Z,99472.78
2023-01-08T15:08:34.213Z,99468.75
2023-01-08T15:11:38.812Z,99457.84
2023-01-08T15:14:30.792Z,99454.47
2023-01-08T15:17:25.853Z,99449.97
2023-01-08T15:20:08.109Z,99459.84
2023-01-08T15:22:56.822Z,99472.13
2023-01-08T15:25:52.745Z,99474.91
2023-01-08T15:28:42.842Z,99461.34
2023-01-08T15:31:39.039Z,99453.34
2023-01-08T15:34:28.826Z,99449.59
2023-01-08T15:37:11.179Z,99454.41
2023-01-08T15:39:59.875Z,99482.63
2023-01-08T15:43:00.317Z,99489.34
2023-01-08T15:45:53.882Z,99505.41
2023-01-08T15:48:48.659Z,99505.47
2023-01-08T15:51:42.118Z,99492.28
2023-01-08T15:54:24.145Z,99498.59
2023-01-08T15:57:12.857Z,99503.94
2023-01-08T15:59:55.398Z,99502.63
2023-01-08T16:02:54.945Z,99502.09
2023-01-08T16:05:38.225Z,99494.25
2023-01-08T16:08:26.787Z,99497.16
2023-01-08T16:11:15.869Z,99502.34
2023-01-08T16:14:04.919Z,99508.22
2023-01-08T16:16:47.351Z,99497.19
2023-01-08T16:19:38.815Z,99501.69
2023-01-08T16:22:27.899Z,99500.97
2023-01-08T16:25:18.163Z,99503.66
2023-01-08T16:28:00.752Z,99509.06
2023-01-08T16:30:44.213Z,99515.91
2023-01-08T16:33:32.892Z,99512.31
2023-01-08T16:36:21.811Z,99510.03
2023-01-08T16:39:04.330Z,99517.28
2023-01-08T16:41:52.783Z,99523.53
2023-01-08T16:44:36.140Z,99512.97
2023-01-08T16:47:24.904Z,99505.63
2023-01-08T16:50:20.669Z,99510.69
2023-01-08T16:53:12.192Z,99501.63
2023-01-08T16:55:54.382Z,99503.78
2023-01-08T16:58:43.910Z,99500.63
2023-01-08T17:01:26.170Z,99504.81
2023-01-08T17:04:14.738Z,99498.13
2023-01-08T17:06:58.214Z,99499.13
2023-01-08T17:09:47.894Z,99493.44
2023-01-08T17:12:30.885Z,99496.84
2023-01-08T17:15:19.860Z,99504.91
2023-01-08T17:18:08.712Z,99498.31
2023-01-08T17:21:01.847Z,99506.94
2023-01-08T17:23:44.635Z,99504.47
2023-01-08T17:26:33.951Z,99494.38
2023-01-08T17:29:16.140Z,99490.91
2023-01-08T17:32:04.845Z,99486.03
2023-01-08T17:34:47.116Z,99486.06
2023-01-08T17:37:38.754Z,99491.09
2023-01-08T17:40:21.205Z,99477.28
2023-01-08T17:43:09.958Z,99466.00
2023-01-08T17:45:53.024Z,99477.09
2023-01-08T17:48:50.769Z,99490.28
2023-01-08T17:51:34.476Z,99493.03
2023-01-08T17:54:27.779Z,99488.19
2023-01-08T17:57:10.250Z,99493.88
2023-01-08T17:59:59.771Z,99487.91
2023-01-08T18:02:48.172Z,99484.16
2023-01-08T18:05:30.776Z,99485.50
2023-01-08T18:08:20.266Z,99506.91
2023-01-08T18:11:02.116Z,99509.50
2023-01-08T18:13:51.073Z,99492.22
2023-01-08T18:16:34.013Z,99482.59
2023-01-08T18:19:23.078Z,99495.53
2023-01-08T18:22:05.743Z,99508.47
2023-01-08T18:24:47.983Z,99491.53
2023-01-08T18:27:36.823Z,99501.06
2023-01-08T18:30:26.281Z,99491.56
2023-01-08T18:33:07.805Z,99491.81
2023-01-08T18:35:56.185Z,99489.06
2023-01-08T18:38:38.823Z,99486.63
2023-01-08T18:41:47.625Z,99494.28
2023-01-08T18:44:30.903Z,99491.19
2023-01-08T18:47:19.088Z,99490.81
2023-01-08T18:50:15.873Z,99489.91
2023-01-08T18:53:05.641Z,99476.38
2023-01-08T18:55:48.723Z,99475.09
2023-01-08T18:58:38.189Z,99461.09
2023-01-08T19:01:20.948Z,99461.19
2023-01-08T19:04:03.549Z,99471.69
2023-01-08T19:06:52.804Z,99483.59
2023-01-08T19:09:41.156Z,99472.00
2023-01-08T19:12:23.764Z,99464.97
2023-01-08T19:15:13.442Z,99476.75
2023-01-08T19:17:56.827Z,99479.78
2023-01-08T19:20:51.110Z,99462.75
2023-01-08T19:23:33.758Z,99446.03
2023-01-08T19:26:23.135Z,99460.25
2023-01-08T19:29:05.880Z,99467.19
2023-01-08T19:31:55.225Z,99459.22
2023-01-08T19:34:37.907Z,99463.53
2023-01-08T19:37:27.576Z,99466.22
2023-01-08T19:40:10.730Z,99461.97
2023-01-08T19:43:17.465Z,99463.09
2023-01-08T19:45:59.935Z,99463.75
2023-01-08T19:48:55.654Z,99474.94
2023-01-08T19:51:44.780Z,99461.41
2023-01-08T19:54:27.293Z,99463.72
2023-01-08T19:57:15.763Z,99455.53
2023-01-08T19:59:58.269Z,99454.63
2023-01-08T20:02:53.772Z,99447.66
2023-01-08T20:05:36.044Z,99445.00
2023-01-08T20:08:24.811Z,99447.97
2023-01-08T20:11:19.788Z,99447.50
2023-01-08T20:14:09.199Z,99449.22
2023-01-08T20:16:52.089Z,99441.66
2023-01-08T20:19:40.208Z,99436.13
2023-01-08T20:22:22.804Z,99443.44
2023-01-08T20:25:06.088Z,99447.53
2023-01-08T20:27:54.709Z,99446.59
2023-01-08T20:30:43.755Z,99440.00
2023-01-08T20:33:26.079Z,99445.56
2023-01-08T20:36:23.808Z,99452.72
2023-01-08T20:39:13.048Z,99464.72
2023-01-08T20:42:04.671Z,99480.34
2023-01-08T20:44:46.977Z,99477.72
2023-01-08T20:47:35.814Z,99480.78
2023-01-08T20:50:26.111Z,99482.44
2023-01-08T20:53:07.815Z,99468.56
2023-01-08T20:55:50.225Z,99481.78
2023-01-08T20:58:38.715Z,99481.88
2023-01-08T21:01:32.505Z,99482.06
2023-01-08T21:04:18.868Z,99488.22
2023-01-08T21:07:01.410Z,99491.06
2023-01-08T21:09:51.745Z,99487.38
2023-01-08T21:12:34.096Z,99497.31
2023-01-08T21:15:23.783Z,99507.13
2023-01-08T21:18:06.111Z,99489.25
2023-01-08T21:20:54.702Z,99487.13
2023-01-08T21:23:36.947Z,99485.19
2023-01-08T21:26:26.708Z,99482.44
2023-01-08T21:29:10.140Z,99475.13
2023-01-08T21:31:58.867Z,99470.81
2023-01-08T21:34:47.681Z,99473.41
2023-01-08T21:37:32.390Z,99461.47
2023-01-08T21:40:22.796Z,99457.41
2023-01-08T21:43:23.187Z,99462.00
2023-01-08T21:46:11.835Z,99467.66
2023-01-08T21:48:55.104Z,99464.38
2023-01-08T21:52:01.787Z,99471.94
2023-01-08T21:54:44.094Z,99470.78
2023-01-08T21:57:35.696Z,99446.16
2023-01-08T22:00:26.772Z,99447.06
2023-01-08T22:03:15.811Z,99467.28
2023-01-08T22:06:09.066Z,99475.72
2023-01-08T22:09:01.683Z,99462.03
2023-01-08T22:11:44.078Z,99469.59
2023-01-08T22:14:32.784Z,99460.66
2023-01-08T22:17:15.543Z,99465.00
2023-01-08T22:20:05.737Z,99467.31
2023-01-08T22:22:48.179Z,99476.75
2023-01-08T22:25:36.735Z,99483.53
2023-01-08T22:28:18.951Z,99479.44
2023-01-08T22:31:12.792Z,99472.00
2023-01-08T22:33:55.323Z,99485.38
2023-01-08T22:36:43.712Z,99483.75
2023-01-08T22:39:25.961Z,99481.72
2023-01-08T22:42:14.687Z,99477.44
2023-01-08T22:44:58.003Z,99469.19
2023-01-08T22:47:46.659Z,99477.47
2023-01-08T22:50:29.077Z,99475.22
2023-01-08T22:53:17.723Z,99451.03
2023-01-08T22:56:00.246Z,99453.66
2023-01-08T22:58:49.715Z,99464.78
2023-01-08T23:01:34.119Z,99469.44
2023-01-08T23:04:22.715Z,99466.28
2023-01-08T23:07:05.019Z,99464.97
2023-01-08T23:09:54.732Z,99462.38
2023-01-08T23:12:36.995Z,99476.50
2023-01-08T23:15:26.749Z,99479.63
2023-01-08T23:18:09.060Z,99467.09
2023-01-08T23:20:57.783Z,99480.63
2023-01-08T23:23:40.064Z,99470.56
2023-01-08T23:26:32.755Z,99474.84
2023-01-08T23:29:15.013Z,99475.53
2023-01-08T23:32:06.658Z,99472.72
2023-01-08T23:34:49.042Z,99479.66
2023-01-08T23:37:37.657Z,99488.09
2023-01-08T23:40:20.021Z,99483.13
2023-01-08T23:43:08.713Z,99476.84
2023-01-08T23:45:51.025Z,99471.41
2023-01-08T23:48:39.730Z,99471.41
2023-01-08T23:51:28.999Z,99475.69
2023-01-08T23:54:11.752Z,99481.97
2023-01-08T23:57:00.731Z,99481.84
2023-01-08T23:59:49.781Z,99486.13
